Terminal Aerodrome Forecast
Issued by NWS Dodge City, KS

Home | Current Version | Previous Version | Graphics & Text | Print | Product List | Glossary Off
Versions: 1 2 3 4 5 6 7 8 9 10 11 12 13 14 15 16

000
FTUS43 KDDC 202336
TAFDDC
TAF
KDDC 202336Z 2100/2124 16013KT P6SM SCT200
     FM210500 18010KT P6SM SCT200
     FM211600 19013G19KT P6SM BKN200=

USA.gov is the U.S. government's official web portal to all federal, state and local government web resources and services.